createdAt,value
2022-11-27T00:01:00.144Z,4.40
2022-11-27T00:02:03.541Z,5.35
2022-11-27T00:03:07.808Z,4.75
2022-11-27T00:04:12.602Z,5.15
2022-11-27T00:05:14.394Z,5.00
2022-11-27T00:06:20.511Z,4.85
2022-11-27T00:07:22.069Z,5.05
2022-11-27T00:08:26.013Z,4.28
2022-11-27T00:09:27.994Z,5.50
2022-11-27T00:10:30.470Z,4.40
2022-11-27T00:11:32.620Z,6.15
2022-11-27T00:12:36.017Z,6.10
2022-11-27T00:13:37.690Z,5.00
2022-11-27T00:14:40.170Z,5.60
2022-11-27T00:15:44.342Z,4.78
2022-11-27T00:16:51.212Z,4.63
2022-11-27T00:17:52.733Z,4.45
2022-11-27T00:18:55.466Z,4.38
2022-11-27T00:19:57.990Z,4.60
2022-11-27T00:21:03.538Z,5.00
2022-11-27T00:22:07.442Z,5.05
2022-11-27T00:23:08.990Z,4.18
2022-11-27T00:24:11.980Z,4.55
2022-11-27T00:25:13.790Z,4.15
2022-11-27T00:26:16.569Z,4.10
2022-11-27T00:27:18.125Z,4.40
2022-11-27T00:28:22.324Z,5.00
2022-11-27T00:29:23.854Z,4.78
2022-11-27T00:30:26.400Z,4.47
2022-11-27T00:31:31.393Z,4.70
2022-11-27T00:32:33.908Z,4.60
2022-11-27T00:33:35.691Z,4.95
2022-11-27T00:34:38.868Z,5.50
2022-11-27T00:35:41.393Z,4.70
2022-11-27T00:36:48.014Z,4.38
2022-11-27T00:37:51.594Z,6.35
2022-11-27T00:38:54.541Z,4.95
2022-11-27T00:39:56.072Z,4.13
2022-11-27T00:41:00.270Z,4.47
2022-11-27T00:42:02.570Z,4.53
2022-11-27T00:43:05.074Z,4.15
2022-11-27T00:44:06.649Z,5.38
2022-11-27T00:45:10.425Z,4.50
2022-11-27T00:46:12.467Z,4.80
2022-11-27T00:47:15.022Z,4.35
2022-11-27T00:48:16.664Z,4.25
2022-11-27T00:49:19.200Z,4.28
2022-11-27T00:50:20.926Z,4.55
2022-11-27T00:51:24.723Z,4.13
2022-11-27T00:52:26.255Z,5.03
2022-11-27T00:53:30.437Z,4.53
2022-11-27T00:54:31.946Z,3.90
2022-11-27T00:55:34.462Z,4.60
2022-11-27T00:56:38.258Z,4.05
2022-11-27T00:57:40.729Z,4.47
2022-11-27T00:58:42.436Z,4.47
2022-11-27T00:59:44.905Z,4.25
2022-11-27T01:00:46.520Z,3.35
2022-11-27T01:01:49.132Z,4.63
2022-11-27T01:02:50.784Z,3.85
2022-11-27T01:03:53.344Z,4.47
2022-11-27T01:04:55.117Z,3.50
2022-11-27T01:06:03.773Z,5.07
2022-11-27T01:07:06.224Z,3.70
2022-11-27T01:08:07.772Z,4.03
2022-11-27T01:09:13.290Z,4.40
2022-11-27T01:10:15.018Z,3.72
2022-11-27T01:11:20.153Z,3.38
2022-11-27T01:12:21.673Z,3.70
2022-11-27T01:13:25.294Z,4.13
2022-11-27T01:14:37.221Z,4.03
2022-11-27T01:15:38.988Z,4.65
2022-11-27T01:16:43.250Z,4.15
2022-11-27T01:17:44.939Z,4.72
2022-11-27T01:18:48.956Z,3.40
2022-11-27T01:19:50.485Z,3.83
2022-11-27T01:20:53.110Z,4.15
2022-11-27T01:21:55.569Z,3.75
2022-11-27T01:22:57.297Z,4.68
2022-11-27T01:24:00.693Z,4.10
2022-11-27T01:25:03.987Z,3.63
2022-11-27T01:26:08.330Z,3.92
2022-11-27T01:27:09.857Z,4.35
2022-11-27T01:28:12.380Z,3.70
2022-11-27T01:29:14.107Z,4.00
2022-11-27T01:30:16.789Z,3.42
2022-11-27T01:31:20.708Z,3.60
2022-11-27T01:32:23.370Z,4.15
2022-11-27T01:33:25.309Z,4.13
2022-11-27T01:34:27.806Z,3.33
2022-11-27T01:35:29.349Z,3.60
2022-11-27T01:36:33.097Z,3.33
2022-11-27T01:37:34.638Z,4.15
2022-11-27T01:38:37.148Z,3.40
2022-11-27T01:39:38.698Z,3.42
2022-11-27T01:40:42.664Z,3.85
2022-11-27T01:41:46.369Z,3.97
2022-11-27T01:42:48.020Z,4.07
2022-11-27T01:43:53.195Z,3.60
2022-11-27T01:45:01.096Z,3.95
2022-11-27T01:46:03.421Z,3.97
2022-11-27T01:47:11.279Z,4.45
2022-11-27T01:48:14.149Z,3.83
2022-11-27T01:49:25.619Z,3.38
2022-11-27T01:50:32.065Z,4.13
2022-11-27T01:51:33.696Z,3.35
2022-11-27T01:52:40.593Z,4.00
2022-11-27T01:53:42.429Z,3.30
2022-11-27T01:54:49.449Z,4.65
2022-11-27T01:55:56.973Z,3.53
2022-11-27T01:57:03.154Z,3.33
2022-11-27T01:58:09.976Z,3.80
2022-11-27T01:59:12.055Z,3.55
2022-11-27T02:00:16.677Z,3.85
2022-11-27T02:01:19.391Z,3.90
2022-11-27T02:02:21.062Z,3.67
2022-11-27T02:03:23.894Z,4.30
2022-11-27T02:04:25.666Z,3.28
2022-11-27T02:05:29.455Z,3.25
2022-11-27T02:06:31.327Z,3.65
2022-11-27T02:07:34.123Z,3.85
2022-11-27T02:08:35.679Z,3.05
2022-11-27T02:09:38.199Z,4.00
2022-11-27T02:10:48.357Z,3.17
2022-11-27T02:11:59.132Z,4.15
2022-11-27T02:13:12.604Z,4.05
2022-11-27T02:14:22.760Z,3.90
2022-11-27T02:15:32.491Z,3.63
2022-11-27T02:16:39.941Z,3.90
2022-11-27T02:17:49.663Z,3.70
2022-11-27T02:18:57.059Z,3.40
2022-11-27T02:20:27.407Z,3.08
2022-11-27T02:21:42.730Z,3.67
2022-11-27T02:22:57.284Z,4.32
2022-11-27T02:24:30.565Z,3.75
2022-11-27T02:25:42.154Z,4.60
2022-11-27T02:27:22.398Z,3.30
2022-11-27T02:28:36.248Z,3.92
2022-11-27T02:29:49.713Z,4.15
2022-11-27T02:30:58.746Z,3.53
2022-11-27T02:32:09.967Z,4.63
2022-11-27T02:33:14.301Z,3.65
2022-11-27T02:34:25.871Z,4.78
2022-11-27T02:35:31.815Z,4.43
2022-11-27T02:36:36.325Z,3.70
2022-11-27T02:37:45.551Z,4.47
2022-11-27T02:38:52.547Z,3.90
2022-11-27T02:40:02.358Z,3.97
2022-11-27T02:41:08.143Z,4.18
2022-11-27T02:42:14.947Z,3.60
2022-11-27T02:43:21.549Z,4.47
2022-11-27T02:44:26.274Z,4.78
2022-11-27T02:45:35.970Z,4.13
2022-11-27T02:46:38.935Z,4.65
2022-11-27T02:47:44.671Z,6.13
2022-11-27T02:48:49.488Z,4.65
2022-11-27T02:49:56.898Z,4.78
2022-11-27T02:50:58.548Z,4.63
2022-11-27T02:52:03.271Z,4.95
2022-11-27T02:53:11.884Z,4.45
2022-11-27T02:54:20.689Z,5.07
2022-11-27T02:55:27.357Z,4.30
2022-11-27T02:56:31.098Z,4.93
2022-11-27T02:57:36.579Z,4.90
2022-11-27T02:58:39.310Z,4.80
2022-11-27T02:59:43.721Z,5.97
2022-11-27T03:00:47.834Z,5.18
2022-11-27T03:01:54.970Z,6.15
2022-11-27T03:03:03.722Z,4.90
2022-11-27T03:04:09.938Z,6.07
2022-11-27T03:05:18.367Z,5.00
2022-11-27T03:06:26.298Z,5.22
2022-11-27T03:07:38.329Z,5.00
2022-11-27T03:08:45.225Z,5.68
2022-11-27T03:09:50.755Z,5.15
2022-11-27T03:11:02.374Z,6.63
2022-11-27T03:12:07.441Z,5.60
2022-11-27T03:13:09.299Z,6.85
2022-11-27T03:14:15.010Z,5.72
2022-11-27T03:15:17.271Z,6.10
2022-11-27T03:16:29.886Z,6.32
2022-11-27T03:17:41.369Z,6.05
2022-11-27T03:18:57.504Z,6.05
2022-11-27T03:20:03.718Z,6.47
2022-11-27T03:21:16.248Z,7.10
2022-11-27T03:22:18.016Z,6.45
2022-11-27T03:23:20.619Z,6.55
2022-11-27T03:24:24.761Z,7.57
2022-11-27T03:25:27.269Z,6.50
2022-11-27T03:26:29.207Z,8.10
2022-11-27T03:27:40.680Z,6.63
2022-11-27T03:28:44.988Z,7.90
2022-11-27T03:29:51.021Z,7.40
2022-11-27T03:30:52.890Z,6.45
2022-11-27T03:31:57.855Z,6.18
2022-11-27T03:33:00.607Z,6.85
2022-11-27T03:34:03.262Z,7.35
2022-11-27T03:35:18.567Z,7.30
2022-11-27T03:36:23.843Z,6.80
2022-11-27T03:37:26.012Z,7.13
2022-11-27T03:38:28.715Z,6.65
2022-11-27T03:39:30.846Z,7.43
2022-11-27T03:40:43.735Z,6.95
2022-11-27T03:41:54.453Z,6.90
2022-11-27T03:43:04.566Z,7.00
2022-11-27T03:44:12.476Z,7.63
2022-11-27T03:45:21.626Z,7.47
2022-11-27T03:46:31.878Z,8.52
2022-11-27T03:47:49.190Z,7.53
2022-11-27T03:48:59.738Z,8.10
2022-11-27T03:50:18.146Z,9.50
2022-11-27T03:51:26.183Z,7.88
2022-11-27T03:52:39.979Z,8.60
2022-11-27T03:53:53.432Z,7.50
2022-11-27T03:55:06.315Z,9.02
2022-11-27T03:56:15.047Z,8.60
2022-11-27T03:57:22.772Z,9.57
2022-11-27T03:58:34.374Z,9.05
2022-11-27T03:59:41.791Z,8.63
2022-11-27T04:00:46.136Z,9.05
2022-11-27T04:01:48.519Z,9.48
2022-11-27T04:02:54.381Z,8.10
2022-11-27T04:03:56.012Z,8.75
2022-11-27T04:04:58.880Z,8.25
2022-11-27T04:06:00.371Z,8.25
2022-11-27T04:07:02.985Z,8.98
2022-11-27T04:08:05.253Z,8.30
2022-11-27T04:09:11.909Z,8.57
2022-11-27T04:10:14.347Z,10.38
2022-11-27T04:11:17.225Z,7.90
2022-11-27T04:12:18.764Z,8.20
2022-11-27T04:13:21.306Z,9.18
2022-11-27T04:14:23.785Z,8.55
2022-11-27T04:15:25.308Z,8.55
2022-11-27T04:16:28.153Z,7.93
2022-11-27T04:17:29.851Z,8.43
2022-11-27T04:18:33.723Z,8.32
2022-11-27T04:19:35.333Z,8.57
2022-11-27T04:20:38.067Z,8.13
2022-11-27T04:21:39.569Z,8.88
2022-11-27T04:22:42.364Z,8.52
2022-11-27T04:23:44.024Z,10.57
2022-11-27T04:24:46.680Z,8.25
2022-11-27T04:25:48.277Z,8.52
2022-11-27T04:26:50.823Z,8.45
2022-11-27T04:27:52.644Z,8.05
2022-11-27T04:28:55.488Z,8.88
2022-11-27T04:29:57.019Z,8.85
2022-11-27T04:30:59.554Z,11.20
2022-11-27T04:32:01.075Z,8.60
2022-11-27T04:33:03.912Z,9.48
2022-11-27T04:34:06.818Z,8.80
2022-11-27T04:35:10.672Z,8.10
2022-11-27T04:36:12.373Z,9.20
2022-11-27T04:37:14.934Z,9.23
2022-11-27T04:38:17.489Z,9.52
2022-11-27T04:39:19.312Z,8.98
2022-11-27T04:40:21.777Z,8.95
2022-11-27T04:41:23.387Z,8.57
2022-11-27T04:42:25.962Z,8.18
2022-11-27T04:43:27.538Z,8.60
2022-11-27T04:44:30.057Z,8.00
2022-11-27T04:45:31.624Z,9.30
2022-11-27T04:46:34.359Z,9.23
2022-11-27T04:47:35.939Z,8.48
2022-11-27T04:48:38.437Z,8.73
2022-11-27T04:49:41.395Z,7.55
2022-11-27T04:50:44.164Z,8.88
2022-11-27T04:51:45.855Z,7.97
2022-11-27T04:52:48.363Z,8.13
2022-11-27T04:53:49.919Z,8.15
2022-11-27T04:54:58.334Z,7.65
2022-11-27T04:56:01.512Z,8.23
2022-11-27T04:57:09.478Z,9.02
2022-11-27T04:58:11.244Z,8.50
2022-11-27T04:59:13.725Z,8.10
2022-11-27T05:00:19.439Z,8.15
2022-11-27T05:01:30.595Z,9.50
2022-11-27T05:02:33.287Z,8.00
2022-11-27T05:03:35.046Z,8.13
2022-11-27T05:04:37.802Z,8.63
2022-11-27T05:05:41.578Z,8.80
2022-11-27T05:06:44.288Z,9.20
2022-11-27T05:07:45.877Z,7.55
2022-11-27T05:08:48.380Z,8.07
2022-11-27T05:09:50.440Z,8.60
2022-11-27T05:11:00.531Z,8.25
2022-11-27T05:12:02.129Z,8.05
2022-11-27T05:13:04.657Z,8.30
2022-11-27T05:14:15.431Z,8.60
2022-11-27T05:15:20.090Z,7.68
2022-11-27T05:16:21.694Z,6.97
2022-11-27T05:17:24.287Z,8.25
2022-11-27T05:18:25.997Z,8.75
2022-11-27T05:19:30.481Z,7.60
2022-11-27T05:20:33.012Z,8.27
2022-11-27T05:21:36.006Z,8.05
2022-11-27T05:22:44.080Z,8.52
2022-11-27T05:23:45.604Z,7.68
2022-11-27T05:24:48.072Z,7.68
2022-11-27T05:25:49.565Z,7.68
2022-11-27T05:26:52.414Z,8.38
2022-11-27T05:27:53.913Z,8.30
2022-11-27T05:28:56.397Z,7.93
2022-11-27T05:29:57.950Z,6.90
2022-11-27T05:31:00.850Z,8.02
2022-11-27T05:32:03.413Z,8.05
2022-11-27T05:33:05.157Z,6.95
2022-11-27T05:34:08.719Z,7.57
2022-11-27T05:35:13.575Z,7.63
2022-11-27T05:36:16.268Z,8.07
2022-11-27T05:37:19.894Z,7.20
2022-11-27T05:38:22.579Z,7.60
2022-11-27T05:39:24.580Z,7.70
2022-11-27T05:40:27.075Z,7.57
2022-11-27T05:41:28.739Z,7.32
2022-11-27T05:42:31.202Z,7.88
2022-11-27T05:43:32.736Z,6.88
2022-11-27T05:44:35.261Z,6.85
2022-11-27T05:45:37.385Z,7.40
2022-11-27T05:46:43.456Z,7.50
2022-11-27T05:47:45.111Z,7.63
2022-11-27T05:48:47.958Z,6.50
2022-11-27T05:49:49.540Z,7.32
2022-11-27T05:50:52.039Z,7.10
2022-11-27T05:51:53.547Z,6.63
2022-11-27T05:52:57.401Z,7.38
2022-11-27T05:53:58.970Z,7.50
2022-11-27T05:55:01.540Z,6.50
2022-11-27T05:56:04.505Z,6.50
2022-11-27T05:57:07.105Z,6.20
2022-11-27T05:58:08.675Z,6.57
2022-11-27T05:59:12.449Z,6.65
2022-11-27T06:00:15.255Z,7.05
2022-11-27T06:01:20.345Z,6.93
2022-11-27T06:02:27.904Z,6.82
2022-11-27T06:03:32.244Z,5.95
2022-11-27T06:04:34.385Z,6.28
2022-11-27T06:05:39.574Z,6.80
2022-11-27T06:06:41.294Z,6.50
2022-11-27T06:07:43.934Z,6.38
2022-11-27T06:08:47.760Z,6.50
2022-11-27T06:09:50.269Z,5.45
2022-11-27T06:10:52.188Z,7.32
2022-11-27T06:11:54.663Z,6.00
2022-11-27T06:12:56.213Z,5.63
2022-11-27T06:13:58.657Z,7.05
2022-11-27T06:15:00.238Z,6.50
2022-11-27T06:16:06.744Z,5.85
2022-11-27T06:17:09.261Z,6.05
2022-11-27T06:18:12.093Z,6.03
2022-11-27T06:19:14.872Z,7.15
2022-11-27T06:20:16.596Z,5.93
2022-11-27T06:21:20.007Z,6.10
2022-11-27T06:22:21.789Z,6.75
2022-11-27T06:23:24.304Z,6.15
2022-11-27T06:24:27.761Z,6.45
2022-11-27T06:25:30.267Z,5.95
2022-11-27T06:26:39.737Z,7.03
2022-11-27T06:27:45.715Z,7.18
2022-11-27T06:28:49.626Z,6.30
2022-11-27T06:29:51.149Z,6.93
2022-11-27T06:30:53.634Z,6.38
2022-11-27T06:31:56.177Z,6.00
2022-11-27T06:32:57.736Z,6.10
2022-11-27T06:34:01.150Z,6.38
2022-11-27T06:35:03.326Z,6.75
2022-11-27T06:36:06.864Z,5.97
2022-11-27T06:37:13.196Z,7.45
2022-11-27T06:38:15.140Z,6.30
2022-11-27T06:39:18.006Z,6.30
2022-11-27T06:40:21.017Z,6.18
2022-11-27T06:41:26.590Z,6.00
2022-11-27T06:42:29.616Z,5.95
2022-11-27T06:43:32.956Z,6.50
2022-11-27T06:44:34.735Z,6.50
2022-11-27T06:45:37.296Z,5.50
2022-11-27T06:46:39.193Z,5.68
2022-11-27T06:47:41.670Z,6.43
2022-11-27T06:48:44.114Z,6.40
2022-11-27T06:49:46.652Z,5.95
2022-11-27T06:50:48.143Z,6.07
2022-11-27T06:51:51.138Z,6.00
2022-11-27T06:52:52.653Z,5.90
2022-11-27T06:53:55.327Z,5.40
2022-11-27T06:54:56.842Z,5.88
2022-11-27T06:56:03.045Z,5.80
2022-11-27T06:57:04.605Z,5.97
2022-11-27T06:58:07.249Z,6.35
2022-11-27T06:59:14.404Z,5.95
2022-11-27T07:00:17.594Z,6.72
2022-11-27T07:01:20.763Z,5.88
2022-11-27T07:02:23.430Z,6.47
2022-11-27T07:03:25.279Z,7.10
2022-11-27T07:04:27.786Z,6.05
2022-11-27T07:05:29.962Z,6.03
2022-11-27T07:06:32.587Z,7.30
2022-11-27T07:07:34.379Z,6.13
2022-11-27T07:08:37.271Z,5.88
2022-11-27T07:09:39.811Z,6.38
2022-11-27T07:10:41.346Z,6.05
2022-11-27T07:11:45.198Z,5.97
2022-11-27T07:12:46.728Z,7.10
2022-11-27T07:13:50.649Z,6.32
2022-11-27T07:14:52.326Z,7.20
2022-11-27T07:15:54.999Z,7.10
2022-11-27T07:16:56.772Z,7.28
2022-11-27T07:17:59.587Z,7.32
2022-11-27T07:19:05.558Z,7.00
2022-11-27T07:20:08.095Z,5.68
2022-11-27T07:21:11.541Z,6.50
2022-11-27T07:22:13.037Z,6.20
2022-11-27T07:23:15.720Z,6.00
2022-11-27T07:24:17.859Z,6.80
2022-11-27T07:25:20.518Z,5.70
2022-11-27T07:26:23.655Z,6.43
2022-11-27T07:27:27.578Z,5.32
2022-11-27T07:28:29.140Z,6.57
2022-11-27T07:29:31.676Z,6.95
2022-11-27T07:30:33.347Z,6.10
2022-11-27T07:31:36.235Z,7.22
2022-11-27T07:32:37.762Z,6.72
2022-11-27T07:33:40.350Z,5.88
2022-11-27T07:34:42.107Z,5.72
2022-11-27T07:35:44.877Z,6.25
2022-11-27T07:36:46.658Z,6.68
2022-11-27T07:37:49.198Z,6.00
2022-11-27T07:38:51.605Z,6.30
2022-11-27T07:40:02.327Z,6.13
2022-11-27T07:41:05.705Z,6.47
2022-11-27T07:42:37.658Z,5.43
2022-11-27T07:43:32.712Z,5.40
2022-11-27T07:44:35.225Z,7.40
2022-11-27T07:45:36.816Z,6.20
2022-11-27T07:46:39.389Z,4.68
2022-11-27T07:47:41.113Z,6.03
2022-11-27T07:48:43.970Z,5.75
2022-11-27T07:49:45.723Z,5.10
2022-11-27T07:50:48.355Z,6.10
2022-11-27T07:51:50.050Z,6.10
2022-11-27T07:52:52.910Z,6.13
2022-11-27T07:53:54.488Z,5.93
2022-11-27T07:54:56.981Z,5.45
2022-11-27T07:55:59.650Z,5.85
2022-11-27T07:57:02.313Z,5.95
2022-11-27T07:58:03.885Z,5.70
2022-11-27T07:59:07.813Z,5.40
2022-11-27T08:00:10.440Z,5.65
2022-11-27T08:01:16.633Z,6.00
2022-11-27T08:02:19.110Z,5.75
2022-11-27T08:03:20.692Z,6.50
2022-11-27T08:04:23.200Z,5.65
2022-11-27T08:05:24.787Z,6.63
2022-11-27T08:06:28.241Z,5.82
2022-11-27T08:07:30.522Z,5.18
2022-11-27T08:08:33.876Z,5.40
2022-11-27T08:09:37.699Z,5.13
2022-11-27T08:10:40.247Z,5.00
2022-11-27T08:11:45.725Z,5.70
2022-11-27T08:12:47.266Z,6.22
2022-11-27T08:13:50.657Z,5.80
2022-11-27T08:14:53.599Z,5.63
2022-11-27T08:15:59.624Z,5.78
2022-11-27T08:17:01.339Z,6.05
2022-11-27T08:18:04.026Z,6.10
2022-11-27T08:19:05.535Z,5.45
2022-11-27T08:20:08.907Z,5.35
2022-11-27T08:21:10.460Z,6.20
2022-11-27T08:22:14.333Z,5.47
2022-11-27T08:23:15.943Z,5.47
2022-11-27T08:24:18.770Z,5.55
2022-11-27T08:25:20.631Z,5.10
2022-11-27T08:26:23.151Z,6.30
2022-11-27T08:27:24.668Z,5.10
2022-11-27T08:28:27.158Z,6.82
2022-11-27T08:29:33.817Z,5.10
2022-11-27T08:30:37.870Z,5.53
2022-11-27T08:31:39.457Z,5.40
2022-11-27T08:32:43.055Z,5.13
2022-11-27T08:33:44.663Z,5.25
2022-11-27T08:34:47.128Z,4.78
2022-11-27T08:35:48.923Z,5.50
2022-11-27T08:36:56.433Z,5.18
2022-11-27T08:37:58.182Z,4.63
2022-11-27T08:39:00.669Z,5.07
2022-11-27T08:40:02.463Z,5.05
2022-11-27T08:41:06.853Z,5.07
2022-11-27T08:42:08.469Z,5.15
2022-11-27T08:43:10.949Z,5.47
2022-11-27T08:44:13.432Z,5.53
2022-11-27T08:45:15.206Z,5.20
2022-11-27T08:46:19.220Z,4.85
2022-11-27T08:47:20.966Z,4.78
2022-11-27T08:48:24.087Z,5.20
2022-11-27T08:49:25.699Z,5.30
2022-11-27T08:50:28.213Z,5.95
2022-11-27T08:51:31.103Z,5.43
2022-11-27T08:52:32.710Z,4.60
2022-11-27T08:53:35.973Z,5.10
2022-11-27T08:54:39.588Z,6.40
2022-11-27T08:55:42.703Z,5.47
2022-11-27T08:56:45.476Z,4.82
2022-11-27T08:57:47.162Z,4.90
2022-11-27T08:58:50.372Z,4.70
2022-11-27T08:59:52.907Z,5.43
2022-11-27T09:00:54.485Z,4.93
2022-11-27T09:01:58.557Z,5.25
2022-11-27T09:03:00.080Z,5.40
2022-11-27T09:04:02.791Z,5.22
2022-11-27T09:05:05.367Z,4.85
2022-11-27T09:06:09.481Z,4.85
2022-11-27T09:07:14.078Z,5.15
2022-11-27T09:08:20.261Z,4.93
2022-11-27T09:09:22.784Z,5.38
2022-11-27T09:10:24.546Z,5.10
2022-11-27T09:11:29.199Z,5.10
2022-11-27T09:12:30.727Z,5.15
2022-11-27T09:13:36.625Z,4.78
2022-11-27T09:14:38.437Z,5.50
2022-11-27T09:15:41.072Z,5.50
2022-11-27T09:16:43.713Z,4.93
2022-11-27T09:17:46.617Z,4.70
2022-11-27T09:18:51.512Z,5.20
2022-11-27T09:19:53.220Z,5.00
2022-11-27T09:20:57.600Z,4.68
2022-11-27T09:22:00.418Z,4.82
2022-11-27T09:23:02.398Z,5.03
2022-11-27T09:24:05.864Z,4.70
2022-11-27T09:25:09.587Z,4.30
2022-11-27T09:26:13.173Z,5.38
2022-11-27T09:27:15.805Z,5.55
2022-11-27T09:28:17.426Z,4.50
2022-11-27T09:29:20.085Z,4.65
2022-11-27T09:30:22.904Z,4.45
2022-11-27T09:31:25.772Z,4.95
2022-11-27T09:32:28.587Z,5.05
2022-11-27T09:33:33.040Z,4.47
2022-11-27T09:34:37.679Z,5.20
2022-11-27T09:35:39.604Z,4.70
2022-11-27T09:36:42.287Z,5.70
2022-11-27T09:37:43.790Z,4.72
2022-11-27T09:38:46.299Z,5.22
2022-11-27T09:39:48.822Z,5.28
2022-11-27T09:40:52.907Z,4.90
2022-11-27T09:41:57.711Z,5.03
2022-11-27T09:43:08.865Z,6.38
2022-11-27T09:44:24.291Z,4.75
2022-11-27T09:45:27.997Z,4.93
2022-11-27T09:46:32.997Z,4.22
2022-11-27T09:47:42.108Z,5.18
2022-11-27T09:48:49.174Z,4.30
2022-11-27T09:49:55.790Z,5.40
2022-11-27T09:51:00.207Z,5.30
2022-11-27T09:52:06.153Z,4.70
2022-11-27T09:53:21.271Z,4.90
2022-11-27T09:54:27.091Z,4.30
2022-11-27T09:55:35.597Z,4.90
2022-11-27T09:56:37.198Z,4.50
2022-11-27T09:57:41.613Z,5.72
2022-11-27T09:58:47.639Z,4.78
2022-11-27T09:59:53.077Z,4.50
2022-11-27T10:00:56.075Z,4.40
2022-11-27T10:01:57.755Z,4.95
2022-11-27T10:03:01.110Z,5.03
2022-11-27T10:04:04.285Z,4.30
2022-11-27T10:05:16.554Z,5.20
2022-11-27T10:06:28.046Z,4.20
2022-11-27T10:07:42.688Z,5.05
2022-11-27T10:08:53.225Z,5.20
2022-11-27T10:10:05.284Z,4.20
2022-11-27T10:11:20.543Z,4.05
2022-11-27T10:12:30.194Z,4.85
2022-11-27T10:13:48.440Z,4.40
2022-11-27T10:15:04.827Z,5.30
2022-11-27T10:16:13.856Z,4.40
2022-11-27T10:17:21.887Z,5.93
2022-11-27T10:18:32.561Z,4.95
2022-11-27T10:19:52.836Z,5.43
2022-11-27T10:20:58.163Z,4.63
2022-11-27T10:22:06.306Z,4.97
2022-11-27T10:23:18.607Z,6.30
2022-11-27T10:24:30.636Z,5.68
2022-11-27T10:25:41.098Z,5.35
2022-11-27T10:26:46.337Z,4.70
2022-11-27T10:28:04.001Z,6.00
2022-11-27T10:29:17.560Z,6.20
2022-11-27T10:30:21.576Z,5.47
2022-11-27T10:31:34.662Z,5.07
2022-11-27T10:34:03.955Z,4.55
2022-11-27T10:35:13.296Z,4.70
2022-11-27T10:36:18.862Z,5.13
2022-11-27T10:37:26.968Z,5.80
2022-11-27T10:38:36.157Z,5.25
2022-11-27T10:39:41.208Z,5.10
2022-11-27T10:40:48.713Z,5.50
2022-11-27T10:41:57.869Z,5.18
2022-11-27T10:43:08.247Z,5.85
2022-11-27T10:44:24.418Z,5.47
2022-11-27T10:45:34.167Z,5.53
2022-11-27T10:46:40.116Z,6.47
2022-11-27T10:47:43.412Z,5.75
2022-11-27T10:48:46.195Z,6.13
2022-11-27T10:49:48.030Z,5.50
2022-11-27T10:50:52.652Z,5.25
2022-11-27T10:51:54.267Z,5.30
2022-11-27T10:53:00.279Z,4.90
2022-11-27T10:54:06.633Z,6.03
2022-11-27T10:55:19.743Z,5.30
2022-11-27T10:56:47.687Z,5.43
2022-11-27T10:58:04.066Z,5.20
2022-11-27T10:59:10.467Z,5.93
2022-11-27T11:00:16.339Z,5.60
2022-11-27T11:01:21.625Z,5.32
2022-11-27T11:02:29.612Z,6.10
2022-11-27T11:03:32.207Z,5.55
2022-11-27T11:04:39.041Z,6.40
2022-11-27T11:06:04.818Z,5.70
2022-11-27T11:07:24.177Z,6.22
2022-11-27T11:08:28.993Z,4.70
2022-11-27T11:09:32.871Z,6.22
2022-11-27T11:10:37.369Z,5.65
2022-11-27T11:11:39.915Z,5.25
2022-11-27T11:12:41.446Z,6.20
2022-11-27T11:13:46.580Z,5.50
2022-11-27T11:14:52.830Z,5.85
2022-11-27T11:15:58.644Z,4.90
2022-11-27T11:17:01.294Z,5.40
2022-11-27T11:18:02.947Z,5.30
2022-11-27T11:19:08.394Z,5.63
2022-11-27T11:20:15.736Z,5.38
2022-11-27T11:21:22.899Z,6.13
2022-11-27T11:22:29.709Z,6.10
2022-11-27T11:23:35.212Z,5.63
2022-11-27T11:24:40.294Z,5.65
2022-11-27T11:25:50.643Z,5.13
2022-11-27T11:26:56.304Z,6.13
2022-11-27T11:27:58.159Z,5.70
2022-11-27T11:29:03.710Z,5.10
2022-11-27T11:30:07.697Z,6.05
2022-11-27T11:31:14.953Z,5.38
2022-11-27T11:32:24.465Z,6.10
2022-11-27T11:33:29.143Z,4.85
2022-11-27T11:34:32.588Z,5.40
2022-11-27T11:35:35.869Z,4.95
2022-11-27T11:36:38.431Z,4.90
2022-11-27T11:37:45.527Z,5.57
2022-11-27T11:38:49.455Z,6.00
2022-11-27T11:39:58.164Z,4.57
2022-11-27T11:41:06.304Z,6.20
2022-11-27T11:42:19.566Z,5.00
2022-11-27T11:43:27.264Z,6.15
2022-11-27T11:44:37.156Z,5.30
2022-11-27T11:45:46.026Z,5.07
2022-11-27T11:46:53.252Z,4.85
2022-11-27T11:47:56.369Z,5.20
2022-11-27T11:49:02.150Z,5.60
2022-11-27T11:50:05.181Z,5.18
2022-11-27T11:51:29.018Z,5.15
2022-11-27T11:52:49.716Z,5.90
2022-11-27T11:54:03.943Z,5.22
2022-11-27T11:55:15.604Z,5.50
2022-11-27T11:56:29.129Z,4.75
2022-11-27T11:57:58.708Z,5.45
2022-11-27T11:59:04.588Z,5.18
2022-11-27T12:00:11.419Z,4.70
2022-11-27T12:01:29.160Z,5.53
2022-11-27T12:02:48.492Z,5.00
2022-11-27T12:04:07.698Z,5.00
2022-11-27T12:05:20.594Z,5.03
2022-11-27T12:06:38.802Z,5.22
2022-11-27T12:07:54.283Z,5.93
2022-11-27T12:09:28.110Z,4.70
2022-11-27T12:10:39.332Z,5.20
2022-11-27T12:11:48.434Z,5.68
2022-11-27T12:13:02.852Z,6.13
2022-11-27T12:14:19.247Z,5.68
2022-11-27T12:15:27.682Z,4.70
2022-11-27T12:16:39.561Z,5.18
2022-11-27T12:20:50.767Z,5.20
2022-11-27T12:22:05.890Z,5.50
2022-11-27T12:23:37.120Z,5.68
2022-11-27T12:24:47.746Z,5.45
2022-11-27T12:26:06.983Z,4.78
2022-11-27T12:27:22.747Z,5.95
2022-11-27T12:28:41.500Z,4.97
2022-11-27T12:30:11.236Z,4.75
2022-11-27T12:31:25.613Z,4.43
2022-11-27T12:32:56.792Z,5.28
2022-11-27T12:34:02.316Z,5.45
2022-11-27T12:35:23.720Z,4.78
2022-11-27T12:36:54.678Z,5.07
2022-11-27T12:38:07.870Z,5.07
2022-11-27T12:39:24.631Z,4.90
2022-11-27T12:40:42.706Z,5.30
2022-11-27T12:41:54.266Z,4.68
2022-11-27T12:43:06.629Z,4.40
2022-11-27T12:44:20.050Z,4.97
2022-11-27T12:45:25.458Z,4.60
2022-11-27T12:46:34.799Z,5.30
2022-11-27T12:47:43.231Z,4.00
2022-11-27T12:48:51.637Z,4.38
2022-11-27T12:49:58.141Z,4.03
2022-11-27T12:51:04.268Z,5.45
2022-11-27T12:52:15.023Z,3.85
2022-11-27T12:53:24.970Z,5.10
2022-11-27T12:54:33.551Z,4.47
2022-11-27T12:55:36.363Z,4.22
2022-11-27T12:56:45.379Z,4.38
2022-11-27T12:57:51.773Z,4.60
2022-11-27T12:58:57.067Z,4.80
2022-11-27T13:00:04.936Z,3.97
2022-11-27T13:01:16.679Z,4.78
2022-11-27T13:02:34.864Z,4.72
2022-11-27T13:03:47.378Z,4.85
2022-11-27T13:04:54.533Z,3.90
2022-11-27T13:06:04.876Z,4.75
2022-11-27T13:07:11.437Z,4.60
2022-11-27T13:08:18.469Z,4.28
2022-11-27T13:09:30.134Z,4.55
2022-11-27T13:10:40.299Z,4.70
2022-11-27T13:11:43.208Z,4.50
2022-11-27T13:12:52.355Z,4.57
2022-11-27T13:13:59.925Z,4.05
2022-11-27T13:15:05.543Z,4.32
2022-11-27T13:16:12.950Z,4.47
2022-11-27T13:17:17.918Z,3.95
2022-11-27T13:18:23.622Z,4.20
2022-11-27T13:19:32.621Z,4.63
2022-11-27T13:20:38.018Z,4.20
2022-11-27T13:21:41.415Z,4.60
2022-11-27T13:22:44.603Z,4.72
2022-11-27T13:23:46.429Z,4.68
2022-11-27T13:24:49.149Z,5.28
2022-11-27T13:25:56.433Z,4.13
2022-11-27T13:27:05.080Z,4.85
2022-11-27T13:28:07.733Z,4.60
2022-11-27T13:29:18.772Z,4.50
2022-11-27T13:30:23.802Z,4.57
2022-11-27T13:31:29.152Z,3.80
2022-11-27T13:32:36.172Z,5.15
2022-11-27T13:33:41.790Z,4.18
2022-11-27T13:34:47.717Z,5.15
2022-11-27T13:35:49.854Z,4.00
2022-11-27T13:36:58.570Z,4.55
2022-11-27T13:38:10.726Z,4.45
2022-11-27T13:39:24.576Z,4.88
2022-11-27T13:40:30.634Z,4.07
2022-11-27T13:41:39.922Z,4.68
2022-11-27T13:42:44.795Z,4.45
2022-11-27T13:43:48.343Z,4.90
2022-11-27T13:44:56.732Z,4.25
2022-11-27T13:46:05.212Z,4.68
2022-11-27T13:47:10.692Z,5.00
2022-11-27T13:48:35.949Z,5.35
2022-11-27T13:49:38.017Z,3.80
2022-11-27T13:50:44.523Z,4.75
2022-11-27T13:51:47.158Z,4.93
2022-11-27T13:52:57.170Z,5.00
2022-11-27T13:54:10.930Z,4.60
2022-11-27T13:55:25.492Z,4.32
2022-11-27T13:56:32.025Z,5.72
2022-11-27T13:57:38.388Z,4.75
2022-11-27T13:58:43.055Z,5.15
2022-11-27T13:59:56.802Z,4.93
2022-11-27T14:01:00.240Z,4.75
2022-11-27T14:02:05.124Z,4.43
2022-11-27T14:03:10.508Z,4.90
2022-11-27T14:04:12.851Z,4.78
2022-11-27T14:05:17.782Z,5.10
2022-11-27T14:06:24.764Z,4.60
2022-11-27T14:07:37.498Z,4.90
2022-11-27T14:08:40.243Z,4.20
2022-11-27T14:09:47.868Z,5.18
2022-11-27T14:10:53.330Z,4.30
2022-11-27T14:11:56.746Z,4.22
2022-11-27T14:13:03.442Z,4.13
2022-11-27T14:14:15.868Z,4.78
2022-11-27T14:15:24.506Z,4.22
2022-11-27T14:16:30.555Z,5.32
2022-11-27T14:17:39.439Z,5.25
2022-11-27T14:18:51.855Z,4.50
2022-11-27T14:20:04.713Z,4.40
2022-11-27T14:21:07.295Z,4.30
2022-11-27T14:22:15.102Z,4.32
2022-11-27T14:23:29.194Z,3.80
2022-11-27T14:24:40.754Z,3.97
2022-11-27T14:25:43.628Z,5.80
2022-11-27T14:26:45.215Z,4.40
2022-11-27T14:28:01.427Z,3.90
2022-11-27T14:29:04.003Z,4.38
2022-11-27T14:30:21.451Z,4.72
2022-11-27T14:31:29.495Z,4.22
2022-11-27T14:32:35.381Z,3.70
2022-11-27T14:34:07.258Z,4.30
2022-11-27T14:35:20.598Z,3.60
2022-11-27T14:36:25.412Z,4.10
2022-11-27T14:37:28.475Z,3.72
2022-11-27T14:38:33.492Z,4.45
2022-11-27T14:39:36.899Z,3.65